Aiea, Hawaii
Current Conditions -  °F | °C
As of 2:53 PM on Monday 22 Dec 2014 (Local Time) from PHNL Reporting Station
Broken Clouds Broken Clouds  
Wind Chill: 24°   Ceiling: 4500
Heat Index: 24°   Visibility: 10mi
Dew Point: 18°   Wind: 14mph
Humidity: 67%   Direction: 30°NNE
Pressure: 29.97"   Gusts: NA
Location:  21.38°N, 157.93°W
Report Text: PHNL 230053Z 03012KT 10SM SCT026 BKN045 BKN060 24/18 A2997 RMK AO2 RAB14E24 SLP149 VCSH NE-E-SE SHRA DSNT NW-N P0000 T02440178
Loading
Personal Weather Stations






























Interactive Weather Map New forecast layout! Learn more

10-Day Weather Forecast

Advertisements
Track Severe Weather on mobile